Time;durP1;ratioP1;P1;durP2;ratioP2;P2;SDS_P1;SDS_P2;PMS_P1;PMS_P2;Temp;Humidity;BMP_temperature;BMP_pressure;BME280_temperature;BME280_humidity;BME280_pressure;Samples;Min_cycle;Max_cycle;Signal;HPM_P1;HPM_P2
2021/08/12 00:01:15;;;;;;;13.67;8.83;;;16.50;99.90;;;;;;5049034;28;20450;-57
2021/08/12 00:03:40;;;;;;;13.33;8.70;;;16.40;99.90;;;;;;5050147;28;20432;-58
2021/08/12 00:06:06;;;;;;;12.77;8.50;;;16.40;99.90;;;;;;5049295;28;20175;-58
2021/08/12 00:08:32;;;;;;;13.23;9.60;;;16.40;99.90;;;;;;5049584;28;20313;-57
2021/08/12 00:10:57;;;;;;;11.03;8.57;;;16.40;99.90;;;;;;5055628;28;20232;-58
2021/08/12 00:13:26;;;;;;;18.03;8.70;;;16.40;99.90;;;;;;5059966;28;20261;-58
2021/08/12 00:15:51;;;;;;;11.47;8.80;;;16.40;99.90;;;;;;5029566;28;20180;-57
2021/08/12 00:18:17;;;;;;;13.17;8.50;;;16.40;99.90;;;;;;5047402;28;20514;-57
2021/08/12 00:20:43;;;;;;;12.20;7.90;;;16.40;99.90;;;;;;5046014;28;20253;-57
2021/08/12 00:23:09;;;;;;;18.70;9.23;;;16.30;99.90;;;;;;5048082;28;20175;-58
2021/08/12 00:25:35;;;;;;;11.30;7.80;;;16.30;99.90;;;;;;5036503;28;20171;-57
2021/08/12 00:28:00;;;;;;;15.10;8.10;;;16.30;99.90;;;;;;5048552;28;20636;-58
2021/08/12 00:30:26;;;;;;;16.27;8.90;;;16.20;99.90;;;;;;5047657;28;20177;-57
2021/08/12 00:32:52;;;;;;;12.17;8.30;;;16.20;99.90;;;;;;5047410;28;20172;-58
2021/08/12 00:35:18;;;;;;;13.67;9.30;;;16.20;99.90;;;;;;5045191;28;20336;-57
2021/08/12 00:37:43;;;;;;;14.83;9.33;;;16.10;99.90;;;;;;5039416;28;20627;-57
2021/08/12 00:40:10;;;;;;;15.30;8.87;;;16.10;99.90;;;;;;5049457;28;20419;-57
2021/08/12 00:42:36;;;;;;;16.20;9.30;;;16.10;99.90;;;;;;5048498;28;20281;-57
2021/08/12 00:45:01;;;;;;;10.30;7.80;;;16.10;99.90;;;;;;5047575;28;20505;-57
2021/08/12 00:47:28;;;;;;;12.40;8.30;;;16.10;99.90;;;;;;5048408;28;20254;-57
2021/08/12 00:49:54;;;;;;;12.93;8.10;;;16.00;99.90;;;;;;5049014;28;20183;-57
2021/08/12 00:52:21;;;;;;;14.33;8.70;;;16.00;99.90;;;;;;5048983;28;20511;-57
2021/08/12 00:54:46;;;;;;;17.00;10.00;;;16.00;99.90;;;;;;5048234;28;20457;-57
2021/08/12 00:57:13;;;;;;;12.57;8.97;;;16.00;99.90;;;;;;5048630;28;20453;-56
2021/08/12 00:59:40;;;;;;;17.40;9.20;;;16.00;99.90;;;;;;5040586;28;20274;-57
2021/08/12 01:02:10;;;;;;;12.33;9.10;;;16.00;99.90;;;;;;5029078;28;20934;-58
2021/08/12 01:04:47;;;;;;;15.00;9.20;;;15.90;99.90;;;;;;5047770;28;20440;-58
2021/08/12 01:07:24;;;;;;;14.87;8.77;;;15.90;99.90;;;;;;5048019;28;20427;-57
2021/08/12 01:10:04;;;;;;;11.13;7.83;;;15.90;99.90;;;;;;5048837;28;20566;-58
2021/08/12 01:12:54;;;;;;;13.77;8.57;;;15.90;99.90;;;;;;5047622;28;21199;-57
2021/08/12 01:15:49;;;;;;;11.33;8.50;;;15.90;99.90;;;;;;5048614;28;20429;-58
2021/08/12 01:19:04;;;;;;;11.50;8.00;;;15.80;99.90;;;;;;5053581;28;20458;-57
2021/08/12 01:22:03;;;;;;;13.00;7.77;;;15.80;99.90;;;;;;5053031;28;20994;-57
2021/08/12 01:24:32;;;;;;;16.00;8.57;;;15.80;99.90;;;;;;5033727;28;20501;-58
2021/08/12 01:27:06;;;;;;;14.03;8.23;;;15.80;99.90;;;;;;5047765;28;20798;-57
2021/08/12 01:29:51;;;;;;;13.80;8.00;;;15.70;99.90;;;;;;5047680;28;20491;-59
2021/08/12 01:32:28;;;;;;;12.10;8.83;;;15.70;99.90;;;;;;5048222;28;20988;-58
2021/08/12 01:35:14;;;;;;;12.57;8.77;;;15.70;99.90;;;;;;5047380;28;20889;-58
2021/08/12 01:37:45;;;;;;;15.03;8.43;;;15.70;99.90;;;;;;5047278;28;20422;-58
2021/08/12 01:40:14;;;;;;;12.60;8.70;;;15.60;99.90;;;;;;5046279;28;20647;-56
2021/08/12 01:42:41;;;;;;;11.23;7.90;;;15.60;99.90;;;;;;5047192;28;20802;-58
2021/08/12 01:45:07;;;;;;;10.10;7.80;;;15.60;99.90;;;;;;5047741;28;20429;-58
2021/08/12 01:47:36;;;;;;;11.73;8.47;;;15.50;99.90;;;;;;5046375;28;20439;-56
2021/08/12 01:50:05;;;;;;;11.40;8.67;;;15.60;99.90;;;;;;5048219;28;20440;-57
2021/08/12 01:52:34;;;;;;;15.00;10.33;;;15.50;99.90;;;;;;5046455;28;20702;-56
2021/08/12 01:55:00;;;;;;;9.83;7.80;;;15.50;99.90;;;;;;5047295;28;20425;-57
2021/08/12 01:57:26;;;;;;;11.90;8.13;;;15.50;99.90;;;;;;5042891;28;20488;-57
2021/08/12 01:59:53;;;;;;;11.87;8.60;;;15.40;99.90;;;;;;5028702;28;20234;-57
2021/08/12 02:02:20;;;;;;;12.60;8.30;;;15.40;99.90;;;;;;5038134;28;20469;-58
2021/08/12 02:04:47;;;;;;;12.50;7.80;;;15.40;99.90;;;;;;5043294;28;21108;-57
2021/08/12 02:07:13;;;;;;;12.43;7.80;;;15.40;99.90;;;;;;5045380;28;20461;-57
2021/08/12 02:09:40;;;;;;;12.30;7.47;;;15.40;99.90;;;;;;5047723;28;20461;-58
2021/08/12 02:12:09;;;;;;;14.70;8.53;;;15.40;99.90;;;;;;5047865;28;20651;-57
2021/08/12 02:14:35;;;;;;;20.03;8.70;;;15.30;99.90;;;;;;5046334;28;20405;-58
2021/08/12 02:17:01;;;;;;;16.20;8.13;;;15.30;99.90;;;;;;5046308;28;20419;-58
2021/08/12 02:19:28;;;;;;;13.43;7.90;;;15.30;99.90;;;;;;5062229;28;20544;-58
2021/08/12 02:22:10;;;;;;;11.90;7.53;;;15.20;99.90;;;;;;5044627;28;20586;-57
2021/08/12 02:24:55;;;;;;;10.53;7.77;;;15.20;99.90;;;;;;5051199;28;20425;-58
2021/08/12 02:27:22;;;;;;;17.70;8.00;;;15.20;99.90;;;;;;5044871;28;20989;-58
2021/08/12 02:29:51;;;;;;;9.00;7.23;;;15.20;99.90;;;;;;5047114;28;20443;-58
2021/08/12 02:32:18;;;;;;;12.93;7.47;;;15.20;99.90;;;;;;5047826;28;20440;-57
2021/08/12 02:34:44;;;;;;;12.03;7.70;;;15.10;99.90;;;;;;5047630;28;20482;-58
2021/08/12 02:37:13;;;;;;;11.43;7.90;;;15.10;99.90;;;;;;5046866;28;20413;-57
2021/08/12 02:39:41;;;;;;;8.70;7.23;;;15.10;99.90;;;;;;5047330;28;20890;-57
2021/08/12 02:42:08;;;;;;;13.57;7.70;;;15.10;99.90;;;;;;5046728;28;20700;-57
2021/08/12 02:44:35;;;;;;;14.00;8.17;;;15.00;99.90;;;;;;5037280;28;20984;-59
2021/08/12 02:47:03;;;;;;;11.00;7.67;;;15.00;99.90;;;;;;5046360;28;20438;-57
2021/08/12 02:49:31;;;;;;;16.57;8.00;;;15.00;99.90;;;;;;5047129;28;20461;-58
2021/08/12 02:51:59;;;;;;;15.07;8.20;;;15.00;99.90;;;;;;5050871;28;20563;-57
2021/08/12 02:54:27;;;;;;;13.00;7.87;;;15.00;99.90;;;;;;5048233;28;20483;-58
2021/08/12 02:56:57;;;;;;;15.13;7.43;;;15.00;99.90;;;;;;5050746;28;20413;-58
2021/08/12 02:59:24;;;;;;;10.43;7.53;;;14.90;99.90;;;;;;5050353;28;20552;-58
2021/08/12 03:01:52;;;;;;;9.80;7.77;;;14.90;99.90;;;;;;5064695;23;20789;-58
2021/08/12 03:04:20;;;;;;;12.27;7.73;;;14.90;99.90;;;;;;5031742;28;20427;-61
2021/08/12 03:06:46;;;;;;;9.57;7.43;;;14.90;99.90;;;;;;5030588;28;20413;-60
2021/08/12 03:09:14;;;;;;;11.97;8.90;;;14.90;99.90;;;;;;5031070;28;20983;-60
2021/08/12 03:11:41;;;;;;;10.43;7.70;;;14.90;99.90;;;;;;5029979;28;21091;-61
2021/08/12 03:14:07;;;;;;;11.00;8.13;;;14.90;99.90;;;;;;5015722;28;20842;-60
2021/08/12 03:16:33;;;;;;;10.80;7.37;;;14.80;99.90;;;;;;5008293;28;20781;-60
2021/08/12 03:18:58;;;;;;;10.03;7.00;;;14.80;99.90;;;;;;5011530;28;20455;-61
2021/08/12 03:21:24;;;;;;;9.33;7.53;;;14.80;99.90;;;;;;5011213;28;20443;-61
2021/08/12 03:23:51;;;;;;;15.17;8.33;;;14.80;99.90;;;;;;5012830;28;20172;-60
2021/08/12 03:26:18;;;;;;;11.77;7.90;;;14.80;99.90;;;;;;5020229;28;20622;-60
2021/08/12 03:28:43;;;;;;;17.70;8.77;;;14.70;99.90;;;;;;5022463;28;20434;-60
2021/08/12 03:31:09;;;;;;;10.50;7.83;;;14.70;99.90;;;;;;5022178;28;20985;-61
2021/08/12 03:33:35;;;;;;;10.87;7.40;;;14.70;99.90;;;;;;5024282;28;20557;-60
2021/08/12 03:36:00;;;;;;;10.90;7.50;;;14.70;99.90;;;;;;5014859;28;20185;-61
2021/08/12 03:38:27;;;;;;;12.63;7.73;;;14.70;99.90;;;;;;5007631;28;20613;-61
2021/08/12 03:40:56;;;;;;;13.83;7.60;;;14.60;99.90;;;;;;5011790;28;20528;-60
2021/08/12 03:43:23;;;;;;;11.93;7.20;;;14.60;99.90;;;;;;5011164;28;20517;-61
2021/08/12 03:45:49;;;;;;;12.60;7.97;;;14.60;99.90;;;;;;5010808;28;20429;-61
2021/08/12 03:48:14;;;;;;;12.13;8.00;;;14.60;99.90;;;;;;5008986;28;20419;-61
2021/08/12 03:50:40;;;;;;;12.00;6.90;;;14.60;99.90;;;;;;5011232;28;20192;-62
2021/08/12 03:53:06;;;;;;;12.10;7.80;;;14.50;99.90;;;;;;5010121;28;20258;-60
2021/08/12 03:55:31;;;;;;;9.37;7.30;;;14.50;99.90;;;;;;5009707;28;20235;-60
2021/08/12 03:58:00;;;;;;;10.10;7.33;;;14.50;99.90;;;;;;5009985;28;20184;-60
2021/08/12 04:00:25;;;;;;;10.40;7.77;;;14.50;99.90;;;;;;5007994;28;20168;-60
2021/08/12 04:02:51;;;;;;;10.30;6.93;;;14.50;99.90;;;;;;5001020;28;20472;-61
2021/08/12 04:05:17;;;;;;;11.90;7.30;;;14.50;99.90;;;;;;5011820;28;20667;-61
2021/08/12 04:07:42;;;;;;;10.90;7.40;;;14.50;99.90;;;;;;5009491;28;20172;-60
2021/08/12 04:10:09;;;;;;;10.27;7.00;;;14.40;99.90;;;;;;5010862;28;20543;-60
2021/08/12 04:12:34;;;;;;;12.63;6.90;;;14.50;99.90;;;;;;5010348;28;20646;-60
2021/08/12 04:15:00;;;;;;;9.77;6.97;;;14.40;99.90;;;;;;5014368;28;20477;-61
2021/08/12 04:17:26;;;;;;;12.93;7.00;;;14.40;99.90;;;;;;5005612;28;20181;-61
2021/08/12 04:19:51;;;;;;;10.40;7.00;;;14.40;99.90;;;;;;5010812;28;20228;-60
2021/08/12 04:22:17;;;;;;;10.37;7.67;;;14.40;99.90;;;;;;5011654;28;20644;-60
2021/08/12 04:24:43;;;;;;;12.83;7.60;;;14.40;99.90;;;;;;5015416;28;20223;-61
2021/08/12 04:27:08;;;;;;;12.43;7.40;;;14.40;99.90;;;;;;5021782;28;20472;-60
2021/08/12 04:29:36;;;;;;;11.40;8.03;;;14.40;99.90;;;;;;5011453;28;20193;-61
2021/08/12 04:32:02;;;;;;;11.40;7.07;;;14.40;99.90;;;;;;5011691;28;20227;-60
2021/08/12 04:34:28;;;;;;;11.77;7.83;;;14.30;99.90;;;;;;5011940;28;20418;-60
2021/08/12 04:36:53;;;;;;;11.70;7.70;;;14.40;99.90;;;;;;5010528;28;20921;-61
2021/08/12 04:39:19;;;;;;;13.20;8.20;;;14.40;99.90;;;;;;5019170;28;20235;-61
2021/08/12 04:41:44;;;;;;;12.17;7.73;;;14.40;99.90;;;;;;5028675;28;20191;-61
2021/08/12 04:44:10;;;;;;;10.17;7.27;;;14.40;99.90;;;;;;5031322;28;20402;-60
2021/08/12 04:46:36;;;;;;;11.03;6.83;;;14.40;99.90;;;;;;5017162;28;20184;-60
2021/08/12 04:49:02;;;;;;;11.47;7.30;;;14.40;99.90;;;;;;5010803;28;20184;-60
2021/08/12 04:51:28;;;;;;;11.43;7.03;;;14.40;99.90;;;;;;5011380;28;20262;-60
2021/08/12 04:53:54;;;;;;;10.17;7.53;;;14.40;99.90;;;;;;5011926;28;20807;-60
2021/08/12 04:56:19;;;;;;;8.37;6.83;;;14.40;99.90;;;;;;5011128;28;20617;-60
2021/08/12 04:58:45;;;;;;;13.97;7.87;;;14.40;99.90;;;;;;5017994;28;20208;-61
2021/08/12 05:01:11;;;;;;;12.07;7.50;;;14.40;99.90;;;;;;5010906;28;20183;-60
2021/08/12 05:03:36;;;;;;;12.07;8.13;;;14.50;99.90;;;;;;5011283;28;20169;-60
2021/08/12 05:06:04;;;;;;;14.00;7.60;;;14.50;99.90;;;;;;5010351;28;20182;-60
2021/08/12 05:08:30;;;;;;;11.47;7.80;;;14.50;99.90;;;;;;5010759;28;20188;-60
2021/08/12 05:10:56;;;;;;;12.27;7.50;;;14.60;99.90;;;;;;5010237;28;20423;-61
2021/08/12 05:13:21;;;;;;;12.50;7.53;;;14.60;99.90;;;;;;5010568;28;20815;-61
2021/08/12 05:15:47;;;;;;;14.40;7.40;;;14.60;99.90;;;;;;5010339;28;20231;-60
2021/08/12 05:18:13;;;;;;;11.03;7.17;;;14.70;99.90;;;;;;5017753;28;20204;-60
2021/08/12 05:20:39;;;;;;;10.93;7.27;;;14.70;99.90;;;;;;5027416;28;20254;-61
2021/08/12 05:23:05;;;;;;;13.77;8.20;;;14.80;99.90;;;;;;5018872;28;20283;-60
2021/08/12 05:25:30;;;;;;;15.00;7.10;;;14.80;99.90;;;;;;5010502;28;20183;-61
2021/08/12 05:27:59;;;;;;;11.87;7.90;;;14.90;99.90;;;;;;5010481;28;20188;-60
2021/08/12 05:30:24;;;;;;;18.60;8.93;;;15.00;99.90;;;;;;5009939;28;20184;-61
2021/08/12 05:32:50;;;;;;;13.80;9.20;;;15.00;99.90;;;;;;5010422;28;20727;-61
2021/08/12 05:35:16;;;;;;;15.80;8.13;;;15.10;99.90;;;;;;5009980;28;20177;-60
2021/08/12 05:37:42;;;;;;;11.17;7.73;;;15.20;99.90;;;;;;5026387;28;20180;-60
2021/08/12 05:40:08;;;;;;;11.67;7.73;;;15.20;99.90;;;;;;5014537;28;20239;-61
2021/08/12 05:42:34;;;;;;;9.00;7.43;;;15.30;99.90;;;;;;5012848;28;20192;-61
2021/08/12 05:44:59;;;;;;;12.80;7.30;;;15.30;99.90;;;;;;5006190;28;21014;-61
2021/08/12 05:47:25;;;;;;;9.83;7.50;;;15.40;99.90;;;;;;5022116;28;20184;-61
2021/08/12 05:49:51;;;;;;;13.80;8.10;;;15.50;99.90;;;;;;5009640;28;20570;-60
2021/08/12 05:52:16;;;;;;;15.93;8.37;;;15.60;99.90;;;;;;5007008;28;20200;-61
2021/08/12 05:54:42;;;;;;;9.00;7.00;;;15.70;99.90;;;;;;5009686;28;20169;-61
2021/08/12 05:57:08;;;;;;;9.70;6.90;;;15.80;99.90;;;;;;5002706;28;20566;-60
2021/08/12 05:59:33;;;;;;;9.57;7.40;;;15.80;99.90;;;;;;5009546;28;20200;-60
2021/08/12 06:01:59;;;;;;;12.60;8.30;;;15.90;99.90;;;;;;5012464;28;20261;-60
2021/08/12 06:04:24;;;;;;;9.37;7.23;;;15.90;99.90;;;;;;5008147;28;20185;-60
2021/08/12 06:06:50;;;;;;;12.27;7.87;;;16.00;99.90;;;;;;5006286;28;20180;-61
2021/08/12 06:09:16;;;;;;;8.67;6.57;;;16.10;99.90;;;;;;5005030;28;20584;-60
2021/08/12 06:11:41;;;;;;;10.17;7.03;;;16.10;99.90;;;;;;5009805;28;20278;-60
2021/08/12 06:14:07;;;;;;;9.20;7.20;;;16.20;99.90;;;;;;5009987;28;20173;-60
2021/08/12 06:16:33;;;;;;;14.63;7.53;;;16.30;99.90;;;;;;5013955;28;20531;-60
2021/08/12 06:18:58;;;;;;;11.03;7.27;;;16.40;99.90;;;;;;5012274;28;20665;-61
2021/08/12 06:21:24;;;;;;;11.40;7.50;;;16.50;99.90;;;;;;5009592;28;20242;-60
2021/08/12 06:23:51;;;;;;;11.23;6.77;;;16.50;99.90;;;;;;5008511;28;20187;-61
2021/08/12 06:26:17;;;;;;;9.37;7.00;;;16.60;99.90;;;;;;5008212;28;20188;-60
2021/08/12 06:28:44;;;;;;;13.00;7.40;;;16.70;99.90;;;;;;5009189;28;20427;-60
2021/08/12 06:31:10;;;;;;;9.00;6.53;;;16.80;99.90;;;;;;5008417;28;20522;-58
2021/08/12 06:33:35;;;;;;;9.43;7.20;;;16.90;99.90;;;;;;5009608;28;20566;-60
2021/08/12 06:36:01;;;;;;;10.17;7.70;;;16.90;99.90;;;;;;5010995;28;20204;-60
2021/08/12 06:38:27;;;;;;;12.80;6.50;;;17.00;99.90;;;;;;5016236;28;20196;-60
2021/08/12 06:40:52;;;;;;;12.70;6.77;;;17.10;99.90;;;;;;5009526;28;20168;-61
2021/08/12 06:43:18;;;;;;;10.47;7.27;;;17.10;99.90;;;;;;5008940;28;20219;-61
2021/08/12 06:45:45;;;;;;;11.23;7.37;;;17.20;99.90;;;;;;5008421;28;20181;-60
2021/08/12 06:48:11;;;;;;;11.67;7.20;;;17.30;99.90;;;;;;5008367;28;20428;-61
2021/08/12 06:50:36;;;;;;;9.83;6.87;;;17.40;99.90;;;;;;5008693;28;20427;-61
2021/08/12 06:53:02;;;;;;;11.47;7.80;;;17.50;99.90;;;;;;5009296;28;20451;-61
2021/08/12 06:55:30;;;;;;;9.43;7.10;;;17.60;99.90;;;;;;5009405;28;20559;-61
2021/08/12 06:57:55;;;;;;;11.33;7.10;;;17.70;99.90;;;;;;5008159;28;20668;-60
2021/08/12 07:00:22;;;;;;;12.67;7.00;;;17.80;99.90;;;;;;5004623;28;20436;-60
2021/08/12 07:02:48;;;;;;;9.77;6.50;;;17.90;99.90;;;;;;5001453;28;20235;-61
2021/08/12 07:05:17;;;;;;;10.60;6.97;;;18.00;99.90;;;;;;5006321;28;20518;-60
2021/08/12 07:07:45;;;;;;;9.57;7.03;;;18.10;99.90;;;;;;5005454;28;20435;-60
2021/08/12 07:10:11;;;;;;;8.37;6.40;;;18.20;99.90;;;;;;5001137;28;20489;-60
2021/08/12 07:12:37;;;;;;;8.00;6.43;;;18.30;99.90;;;;;;5003645;28;20554;-61
2021/08/12 07:15:05;;;;;;;11.00;7.00;;;18.40;99.90;;;;;;5006509;28;20531;-59
2021/08/12 07:17:34;;;;;;;11.47;6.23;;;18.50;99.90;;;;;;5006772;28;20645;-59
2021/08/12 07:20:00;;;;;;;10.97;6.90;;;18.60;99.90;;;;;;5008132;28;20546;-60
2021/08/12 07:22:26;;;;;;;18.87;7.40;;;18.80;99.90;;;;;;5006956;28;20451;-60
2021/08/12 07:24:51;;;;;;;10.50;7.20;;;18.90;99.90;;;;;;5007614;28;20177;-60
2021/08/12 07:27:17;;;;;;;12.40;7.37;;;19.00;99.90;;;;;;5003673;28;20268;-60
2021/08/12 07:29:43;;;;;;;10.57;7.13;;;19.10;99.90;;;;;;5001788;28;20187;-60
2021/08/12 07:32:09;;;;;;;10.80;7.87;;;19.30;99.90;;;;;;5005159;28;20231;-58
2021/08/12 07:34:37;;;;;;;9.27;6.30;;;19.40;99.90;;;;;;5005595;28;20272;-61
2021/08/12 07:37:03;;;;;;;12.73;7.70;;;19.50;99.90;;;;;;5007798;28;20466;-61
2021/08/12 07:39:29;;;;;;;10.50;6.90;;;19.60;99.90;;;;;;5008360;28;20464;-61
2021/08/12 07:41:55;;;;;;;11.27;7.63;;;19.70;99.90;;;;;;5008302;28;20517;-62
2021/08/12 07:44:21;;;;;;;9.27;6.90;;;19.80;99.90;;;;;;5007088;28;20596;-61
2021/08/12 07:46:46;;;;;;;16.10;7.30;;;19.90;99.90;;;;;;5011845;28;20259;-61
2021/08/12 07:49:12;;;;;;;10.20;6.63;;;20.00;99.90;;;;;;5010631;28;20676;-61
2021/08/12 07:51:38;;;;;;;15.03;7.80;;;20.20;99.90;;;;;;5009476;28;20261;-61
2021/08/12 07:54:03;;;;;;;10.23;6.80;;;20.30;99.90;;;;;;5008745;28;20215;-61
2021/08/12 07:56:29;;;;;;;10.70;7.87;;;20.30;99.90;;;;;;5013132;28;20212;-61
2021/08/12 07:58:55;;;;;;;12.33;7.10;;;20.40;99.90;;;;;;5014368;28;20208;-62
2021/08/12 08:01:20;;;;;;;9.93;7.70;;;20.50;99.90;;;;;;5013130;28;20565;-56
2021/08/12 08:03:46;;;;;;;12.93;7.33;;;20.60;99.90;;;;;;5005266;28;20264;-60
2021/08/12 08:06:12;;;;;;;21.13;7.70;;;20.80;99.90;;;;;;5000525;28;20191;-60
2021/08/12 08:08:38;;;;;;;9.67;6.80;;;20.80;99.90;;;;;;5006818;28;20184;-62
2021/08/12 08:11:04;;;;;;;17.17;7.30;;;20.80;99.90;;;;;;5003569;28;20470;-60
2021/08/12 08:13:30;;;;;;;14.23;7.73;;;20.90;99.90;;;;;;5002897;28;20184;-61
2021/08/12 08:15:57;;;;;;;11.53;8.00;;;21.00;99.90;;;;;;5004530;28;20199;-57
2021/08/12 08:18:23;;;;;;;12.67;7.63;;;21.10;99.90;;;;;;5009258;28;20517;-60
2021/08/12 08:20:49;;;;;;;11.80;7.90;;;21.20;99.90;;;;;;5002839;28;20474;-62
2021/08/12 08:23:15;;;;;;;10.90;6.83;;;21.30;99.90;;;;;;5004904;28;20196;-61
2021/08/12 08:25:40;;;;;;;10.30;6.73;;;21.40;99.90;;;;;;5006918;28;20284;-60
2021/08/12 08:28:07;;;;;;;11.30;7.40;;;21.50;99.90;;;;;;5009018;28;20185;-60
2021/08/12 08:30:35;;;;;;;14.03;7.33;;;21.60;99.90;;;;;;5002508;28;20186;-60
2021/08/12 08:33:01;;;;;;;13.67;7.37;;;21.70;99.30;;;;;;5002680;28;20865;-60
2021/08/12 08:35:28;;;;;;;14.13;8.43;;;21.80;99.90;;;;;;5004763;28;20807;-56
2021/08/12 08:37:55;;;;;;;11.40;7.80;;;22.00;99.70;;;;;;5004578;28;20525;-57
2021/08/12 08:40:21;;;;;;;11.90;7.00;;;22.10;99.00;;;;;;5004246;28;20439;-57
2021/08/12 08:42:47;;;;;;;13.37;8.03;;;22.10;98.30;;;;;;5007766;28;20451;-57
2021/08/12 08:45:21;;;;;;;15.13;7.60;;;22.20;98.70;;;;;;5010294;28;20483;-57
2021/08/12 08:47:50;;;;;;;11.77;6.90;;;22.30;98.70;;;;;;5005062;28;20184;-58
2021/08/12 08:50:21;;;;;;;14.67;8.10;;;22.50;97.70;;;;;;5006121;28;20436;-57
2021/08/12 08:52:48;;;;;;;14.13;7.30;;;22.50;97.10;;;;;;5006192;28;20493;-58
2021/08/12 08:55:20;;;;;;;12.63;7.53;;;22.60;97.00;;;;;;5005408;28;20440;-57
2021/08/12 08:57:56;;;;;;;9.77;6.73;;;22.50;96.50;;;;;;5006601;28;20503;-58
2021/08/12 09:00:22;;;;;;;9.73;6.60;;;22.60;97.30;;;;;;5007085;28;20493;-58
2021/08/12 09:02:49;;;;;;;11.27;8.10;;;22.70;98.50;;;;;;5005833;28;20463;-57
2021/08/12 09:05:15;;;;;;;8.60;6.70;;;22.80;97.90;;;;;;5000710;28;20463;-57
2021/08/12 09:07:42;;;;;;;10.83;7.77;;;22.80;97.10;;;;;;5002876;28;20463;-59
2021/08/12 09:10:10;;;;;;;8.30;7.30;;;22.90;97.20;;;;;;5003983;28;20436;-59
2021/08/12 09:12:36;;;;;;;10.33;8.03;;;23.00;97.50;;;;;;4999273;28;20472;-62
2021/08/12 09:15:08;;;;;;;13.20;7.20;;;23.20;98.30;;;;;;5004442;28;20434;-61
2021/08/12 09:17:36;;;;;;;16.30;6.77;;;23.40;98.50;;;;;;5004584;28;20526;-59
2021/08/12 09:20:14;;;;;;;14.30;7.70;;;23.50;97.70;;;;;;5006785;28;20470;-59
2021/08/12 09:23:00;;;;;;;11.23;7.40;;;23.70;96.80;;;;;;5005904;28;20860;-60
2021/08/12 09:25:45;;;;;;;16.43;7.73;;;23.80;96.80;;;;;;5009074;28;20430;-59
2021/08/12 09:28:12;;;;;;;17.13;8.07;;;24.00;97.60;;;;;;5008263;28;20458;-59
2021/08/12 09:30:38;;;;;;;9.53;7.67;;;24.20;96.30;;;;;;5005466;28;20478;-59
2021/08/12 09:33:04;;;;;;;10.70;7.63;;;24.30;95.30;;;;;;5009686;28;20951;-59
2021/08/12 09:35:30;;;;;;;8.33;6.70;;;24.40;94.40;;;;;;5008740;28;20506;-60
2021/08/12 09:38:08;;;;;;;10.23;7.33;;;24.60;92.50;;;;;;5017020;28;20188;-59
2021/08/12 09:40:34;;;;;;;8.50;7.33;;;24.70;82.10;;;;;;5006876;28;20275;-59
2021/08/12 09:43:02;;;;;;;10.07;7.23;;;24.80;76.70;;;;;;5012666;28;20779;-59
2021/08/12 09:45:30;;;;;;;12.80;7.40;;;24.80;74.70;;;;;;5010958;28;20511;-60
2021/08/12 09:48:07;;;;;;;10.50;7.10;;;24.90;72.10;;;;;;5010899;28;20570;-60
2021/08/12 09:50:35;;;;;;;12.57;7.77;;;25.00;74.10;;;;;;5006141;28;20434;-60
2021/08/12 09:53:01;;;;;;;10.90;8.27;;;25.20;71.20;;;;;;5013389;28;20814;-60
2021/08/12 09:55:26;;;;;;;11.30;6.90;;;25.20;71.30;;;;;;5015362;28;20415;-60
2021/08/12 09:58:06;;;;;;;12.37;7.10;;;25.40;72.10;;;;;;5013077;28;20255;-60
2021/08/12 10:00:45;;;;;;;11.73;7.20;;;25.60;69.30;;;;;;5008501;28;20316;-60
2021/08/12 10:03:32;;;;;;;12.80;7.57;;;25.70;67.50;;;;;;5010018;28;20518;-60
2021/08/12 10:06:02;;;;;;;8.07;6.63;;;25.80;65.50;;;;;;5008754;28;20423;-59
2021/08/12 10:08:36;;;;;;;13.80;8.50;;;25.80;64.00;;;;;;5008610;28;20477;-60
2021/08/12 10:11:20;;;;;;;13.03;7.40;;;25.80;66.30;;;;;;5009578;28;20422;-59
2021/08/12 10:13:48;;;;;;;11.53;7.47;;;26.00;67.20;;;;;;5009297;28;20513;-59
2021/08/12 10:16:16;;;;;;;10.17;7.10;;;26.10;66.50;;;;;;5014058;28;20887;-59
2021/08/12 10:18:43;;;;;;;12.00;7.80;;;26.20;66.20;;;;;;5020555;28;20830;-60
2021/08/12 10:21:11;;;;;;;11.23;7.53;;;26.30;66.10;;;;;;5026657;28;20429;-60
2021/08/12 10:23:39;;;;;;;9.33;7.53;;;26.40;64.80;;;;;;5015586;28;20411;-60
2021/08/12 10:26:05;;;;;;;11.00;7.43;;;26.50;64.20;;;;;;5017863;28;20415;-60
2021/08/12 10:28:34;;;;;;;10.13;7.70;;;26.70;63.70;;;;;;5009417;28;20419;-60
2021/08/12 10:31:02;;;;;;;11.40;8.03;;;26.80;62.20;;;;;;5008994;28;20427;-60
2021/08/12 10:33:28;;;;;;;13.50;8.53;;;26.90;62.30;;;;;;5009160;28;20446;-60
2021/08/12 10:35:57;;;;;;;9.40;7.43;;;27.00;62.00;;;;;;4993499;28;20440;-60
2021/08/12 10:38:22;;;;;;;11.07;6.80;;;27.10;63.60;;;;;;5007031;28;20454;-60
2021/08/12 10:40:52;;;;;;;10.33;7.47;;;27.20;60.90;;;;;;5009166;28;20939;-60
2021/08/12 10:43:24;;;;;;;10.40;7.30;;;27.30;59.70;;;;;;5009618;28;20184;-59
2021/08/12 10:45:57;;;;;;;9.40;7.33;;;27.50;59.40;;;;;;5009591;28;20399;-62
2021/08/12 10:48:24;;;;;;;8.40;7.43;;;27.50;58.10;;;;;;5009281;28;20419;-61
2021/08/12 10:51:11;;;;;;;14.00;7.50;;;27.60;58.90;;;;;;4993408;28;20434;-61
2021/08/12 10:53:42;;;;;;;12.23;7.20;;;27.70;58.40;;;;;;4989807;28;20530;-62
2021/08/12 10:56:10;;;;;;;10.60;7.67;;;27.70;58.30;;;;;;5003143;28;20423;-61
2021/08/12 10:58:38;;;;;;;11.90;7.67;;;27.80;57.70;;;;;;5016231;28;20706;-61
2021/08/12 11:01:07;;;;;;;12.50;7.70;;;27.90;57.50;;;;;;5019085;28;20921;-61
2021/08/12 11:03:33;;;;;;;11.90;7.50;;;28.00;57.00;;;;;;5007934;28;20184;-59
2021/08/12 11:06:16;;;;;;;14.17;8.27;;;28.20;56.60;;;;;;5008085;28;20231;-59
2021/08/12 11:08:48;;;;;;;12.27;7.87;;;28.30;56.10;;;;;;5009159;28;20172;-61
2021/08/12 11:11:35;;;;;;;12.90;7.27;;;28.40;55.60;;;;;;5010229;28;20168;-62
2021/08/12 11:14:05;;;;;;;11.87;7.50;;;28.50;55.40;;;;;;5005231;28;20199;-60
2021/08/12 11:16:40;;;;;;;14.30;8.33;;;28.50;54.90;;;;;;5011212;28;20195;-61
2021/08/12 11:19:30;;;;;;;11.37;7.60;;;28.50;53.50;;;;;;5008345;28;20207;-61
2021/08/12 11:21:56;;;;;;;11.67;7.50;;;28.50;52.70;;;;;;5004361;28;20211;-60
2021/08/12 11:24:22;;;;;;;8.90;6.90;;;28.50;53.30;;;;;;5011987;28;20184;-61
2021/08/12 11:26:48;;;;;;;10.83;7.87;;;28.70;53.50;;;;;;5012169;28;20176;-61
2021/08/12 11:29:22;;;;;;;9.07;7.37;;;28.80;54.60;;;;;;5011896;28;20180;-60
2021/08/12 11:31:48;;;;;;;9.80;7.00;;;28.90;55.50;;;;;;5011528;28;20312;-61
2021/08/12 11:34:29;;;;;;;8.63;7.07;;;29.00;55.30;;;;;;5012806;28;20663;-61
2021/08/12 11:37:14;;;;;;;12.97;7.57;;;29.10;54.50;;;;;;5017971;28;20179;-61
2021/08/12 11:39:52;;;;;;;10.97;8.00;;;29.20;53.00;;;;;;5018104;28;20553;-61
2021/08/12 11:42:43;;;;;;;9.10;7.00;;;29.30;52.50;;;;;;5012287;28;20188;-61
2021/08/12 11:45:21;;;;;;;11.23;7.40;;;29.40;51.90;;;;;;5012571;28;20568;-61
2021/08/12 11:47:54;;;;;;;8.37;6.93;;;29.50;52.70;;;;;;5011446;28;20168;-61
2021/08/12 11:50:24;;;;;;;9.55;7.93;;;29.70;52.80;;;;;;5013118;28;20598;-61
2021/08/12 11:52:50;;;;;;;9.20;7.22;;;29.80;51.40;;;;;;5012646;28;20342;-61
2021/08/12 11:55:18;;;;;;;13.10;8.90;;;29.90;51.80;;;;;;5012019;28;20624;-61
2021/08/12 11:57:54;;;;;;;10.02;7.57;;;30.00;51.00;;;;;;5014404;28;20286;-61
2021/08/12 12:00:22;;;;;;;10.93;7.47;;;30.00;49.80;;;;;;5017590;28;20245;-61
2021/08/12 12:02:54;;;;;;;12.45;7.90;;;30.00;50.40;;;;;;5012030;28;20303;-61
2021/08/12 12:05:25;;;;;;;9.75;7.72;;;30.10;51.40;;;;;;5014993;28;20168;-60
2021/08/12 12:07:57;;;;;;;14.90;8.10;;;30.30;51.10;;;;;;5008076;28;20184;-61
2021/08/12 12:10:32;;;;;;;9.30;7.90;;;30.50;51.10;;;;;;5011103;28;20173;-61
2021/08/12 12:13:11;;;;;;;11.93;7.35;;;30.50;51.00;;;;;;5005412;28;20205;-61
2021/08/12 12:15:44;;;;;;;12.88;7.55;;;30.40;49.00;;;;;;5026052;28;20187;-60
2021/08/12 12:18:11;;;;;;;9.48;7.20;;;30.40;49.00;;;;;;5013955;28;20222;-61
2021/08/12 12:20:40;;;;;;;12.07;8.13;;;30.40;49.30;;;;;;5011294;28;20164;-61
2021/08/12 12:23:12;;;;;;;11.50;8.77;;;30.40;49.00;;;;;;5011960;28;20200;-61
2021/08/12 12:25:41;;;;;;;10.07;7.38;;;30.30;50.20;;;;;;5019420;28;20662;-61
2021/08/12 12:28:07;;;;;;;9.35;6.97;;;30.40;51.70;;;;;;5008840;28;20169;-61
2021/08/12 12:30:34;;;;;;;15.27;7.60;;;30.60;52.00;;;;;;5011691;28;20171;-61
2021/08/12 12:33:10;;;;;;;10.57;7.68;;;30.80;52.00;;;;;;5009950;28;20200;-61
2021/08/12 12:35:43;;;;;;;15.10;8.38;;;31.10;51.90;;;;;;4991951;28;20174;-60
2021/08/12 12:38:10;;;;;;;9.50;7.28;;;31.20;50.90;;;;;;4991649;28;20300;-61
2021/08/12 12:40:38;;;;;;;14.07;7.57;;;31.30;49.10;;;;;;4994691;28;20196;-60
2021/08/12 12:43:05;;;;;;;12.15;7.82;;;31.40;48.90;;;;;;5009887;28;20189;-61
2021/08/12 12:45:43;;;;;;;8.40;7.18;;;31.40;47.70;;;;;;5017658;28;20199;-61